createdAt,value
2022-11-14T00:01:40.269Z,47.40
2022-11-14T00:04:08.311Z,48.90
2022-11-14T00:06:36.349Z,47.00
2022-11-14T00:09:04.561Z,47.93
2022-11-14T00:11:32.671Z,46.13
2022-11-14T00:14:00.667Z,46.20
2022-11-14T00:16:29.011Z,46.67
2022-11-14T00:18:59.516Z,45.87
2022-11-14T00:21:27.491Z,46.67
2022-11-14T00:23:55.446Z,45.83
2022-11-14T00:26:23.406Z,45.67
2022-11-14T00:28:51.478Z,46.77
2022-11-14T00:31:19.584Z,45.10
2022-11-14T00:33:47.932Z,45.40
2022-11-14T00:36:17.448Z,46.10
2022-11-14T00:38:48.736Z,45.90
2022-11-14T00:41:19.744Z,46.37
2022-11-14T00:43:48.097Z,44.23
2022-11-14T00:46:16.367Z,45.67
2022-11-14T00:48:45.763Z,45.27
2022-11-14T00:51:17.698Z,45.47
2022-11-14T00:53:45.797Z,46.70
2022-11-14T00:56:13.971Z,45.70
2022-11-14T00:58:42.029Z,45.70
2022-11-14T01:01:10.360Z,45.83
2022-11-14T01:03:38.495Z,45.17
2022-11-14T01:06:09.110Z,47.67
2022-11-14T01:08:39.748Z,45.43
2022-11-14T01:11:12.336Z,45.03
2022-11-14T01:13:40.908Z,45.20
2022-11-14T01:16:11.412Z,45.33
2022-11-14T01:18:41.461Z,45.23
2022-11-14T01:21:11.398Z,45.60
2022-11-14T01:23:41.375Z,45.13
2022-11-14T01:26:11.468Z,44.70
2022-11-14T01:28:40.231Z,44.97
2022-11-14T01:31:16.447Z,44.43
2022-11-14T01:33:45.074Z,44.60
2022-11-14T01:36:15.188Z,45.43
2022-11-14T01:38:45.010Z,44.53
2022-11-14T01:41:15.420Z,44.27
2022-11-14T01:43:43.978Z,43.40
2022-11-14T01:46:16.279Z,44.40
2022-11-14T01:48:50.016Z,45.17
2022-11-14T01:51:22.636Z,44.77
2022-11-14T01:53:57.024Z,42.77
2022-11-14T01:56:29.566Z,43.07
2022-11-14T01:59:05.049Z,43.77
2022-11-14T02:01:36.161Z,44.50
2022-11-14T02:04:15.223Z,45.17
2022-11-14T02:06:43.663Z,44.97
2022-11-14T02:09:17.428Z,45.53
2022-11-14T02:11:47.343Z,44.67
2022-11-14T02:14:16.250Z,43.20
2022-11-14T02:16:55.686Z,44.97
2022-11-14T02:19:43.661Z,44.37
2022-11-14T02:22:13.094Z,44.83
2022-11-14T02:24:41.310Z,44.50
2022-11-14T02:27:11.184Z,44.97
2022-11-14T02:29:39.211Z,43.60
2022-11-14T02:32:10.713Z,44.17
2022-11-14T02:34:39.459Z,44.17
2022-11-14T02:37:08.032Z,43.87
2022-11-14T02:39:37.540Z,43.93
2022-11-14T02:42:05.795Z,43.97
2022-11-14T02:44:33.798Z,44.30
2022-11-14T02:47:01.904Z,43.23
2022-11-14T02:49:30.042Z,45.20
2022-11-14T02:51:58.023Z,44.23
2022-11-14T02:54:26.032Z,44.07
2022-11-14T02:56:55.511Z,44.03
2022-11-14T02:59:23.594Z,42.97
2022-11-14T03:01:53.105Z,44.13
2022-11-14T03:04:21.203Z,41.33
2022-11-14T03:06:49.332Z,44.43
2022-11-14T03:09:18.228Z,43.87
2022-11-14T03:11:46.314Z,43.03
2022-11-14T03:14:15.880Z,43.50
2022-11-14T03:16:45.753Z,42.47
2022-11-14T03:19:15.670Z,42.70
2022-11-14T03:21:44.196Z,42.43
2022-11-14T03:24:12.700Z,42.30
2022-11-14T03:26:40.888Z,42.87
2022-11-14T03:29:09.231Z,43.17
2022-11-14T03:31:38.879Z,43.90
2022-11-14T03:34:07.199Z,43.87
2022-11-14T03:36:36.125Z,44.80
2022-11-14T03:39:05.447Z,42.20
2022-11-14T03:41:33.637Z,44.53
2022-11-14T03:44:01.699Z,42.50
2022-11-14T03:46:29.753Z,43.67
2022-11-14T03:48:59.278Z,44.40
2022-11-14T03:51:27.303Z,43.70
2022-11-14T03:53:55.419Z,43.53
2022-11-14T03:56:23.744Z,43.17
2022-11-14T03:58:51.907Z,43.20
2022-11-14T04:01:23.363Z,44.40
2022-11-14T04:03:51.603Z,42.90
2022-11-14T04:06:21.037Z,44.40
2022-11-14T04:08:49.052Z,43.97
2022-11-14T04:11:17.105Z,44.17
2022-11-14T04:13:45.234Z,44.20
2022-11-14T04:16:13.272Z,44.10
2022-11-14T04:18:41.303Z,43.93
2022-11-14T04:21:11.830Z,43.97
2022-11-14T04:23:41.360Z,43.33
2022-11-14T04:26:09.360Z,43.80
2022-11-14T04:28:37.374Z,44.63
2022-11-14T04:31:05.549Z,45.43
2022-11-14T04:33:33.554Z,45.20
2022-11-14T04:36:01.625Z,45.57
2022-11-14T04:38:29.954Z,45.83
2022-11-14T04:40:59.534Z,46.07
2022-11-14T04:43:27.744Z,44.93
2022-11-14T04:45:55.797Z,45.70
2022-11-14T04:48:23.962Z,45.63
2022-11-14T04:50:52.170Z,47.47
2022-11-14T04:53:20.186Z,46.10
2022-11-14T04:55:48.215Z,47.43
2022-11-14T04:58:17.853Z,47.23
2022-11-14T05:00:47.051Z,48.43
2022-11-14T05:03:16.436Z,45.93
2022-11-14T05:05:44.612Z,47.97
2022-11-14T05:08:12.667Z,47.07
2022-11-14T05:10:44.261Z,47.20
2022-11-14T05:13:13.320Z,46.17
2022-11-14T05:15:43.108Z,47.00
2022-11-14T05:18:11.438Z,47.40
2022-11-14T05:20:39.496Z,46.83
2022-11-14T05:23:07.966Z,48.47
2022-11-14T05:25:36.022Z,47.43
2022-11-14T05:28:06.529Z,47.50
2022-11-14T05:30:34.509Z,47.20
2022-11-14T05:33:05.051Z,47.93
2022-11-14T05:35:33.041Z,47.97
2022-11-14T05:38:02.577Z,47.10
2022-11-14T05:40:30.501Z,48.13
2022-11-14T05:42:58.530Z,47.07
2022-11-14T05:45:26.480Z,47.13
2022-11-14T05:47:54.888Z,47.70
2022-11-14T05:50:24.307Z,47.10
2022-11-14T05:52:52.236Z,48.80
2022-11-14T05:55:24.854Z,47.03
2022-11-14T05:57:53.214Z,46.63
2022-11-14T06:00:21.339Z,47.30
2022-11-14T06:02:49.399Z,46.63
2022-11-14T06:05:17.450Z,46.70
2022-11-14T06:07:50.068Z,47.03
2022-11-14T06:10:18.161Z,45.37
2022-11-14T06:12:46.304Z,46.27
2022-11-14T06:15:14.251Z,47.37
2022-11-14T06:17:44.026Z,43.87
2022-11-14T06:20:13.270Z,46.53
2022-11-14T06:22:41.587Z,46.87
2022-11-14T06:25:11.213Z,45.87
2022-11-14T06:27:42.189Z,45.33
2022-11-14T06:30:11.477Z,45.30
2022-11-14T06:32:39.443Z,44.83
2022-11-14T06:35:08.333Z,47.00
2022-11-14T06:37:37.490Z,46.67
2022-11-14T06:40:07.381Z,45.97
2022-11-14T06:42:36.867Z,45.73
2022-11-14T06:45:07.339Z,45.97
2022-11-14T06:47:35.534Z,45.67
2022-11-14T06:50:03.855Z,46.40
2022-11-14T06:52:32.649Z,46.30
2022-11-14T06:55:00.609Z,45.33
2022-11-14T06:57:28.622Z,46.40
2022-11-14T06:59:58.525Z,46.27
2022-11-14T07:02:26.534Z,40.90
2022-11-14T07:04:54.541Z,42.23
2022-11-14T07:07:22.510Z,42.90
2022-11-14T07:09:50.730Z,41.83
2022-11-14T07:12:18.838Z,42.77
2022-11-14T07:14:46.911Z,41.07
2022-11-14T07:17:16.310Z,41.57
2022-11-14T07:19:44.352Z,41.20
2022-11-14T07:22:12.273Z,41.10
2022-11-14T07:24:42.214Z,41.10
2022-11-14T07:27:12.143Z,41.27
2022-11-14T07:29:40.203Z,38.57
2022-11-14T07:32:08.165Z,37.37
2022-11-14T07:34:37.704Z,38.00
2022-11-14T07:37:05.827Z,37.57
2022-11-14T07:39:33.796Z,37.60
2022-11-14T07:42:01.754Z,37.23
2022-11-14T07:44:29.885Z,36.90
2022-11-14T07:46:57.745Z,38.07
2022-11-14T07:49:25.784Z,38.07
2022-11-14T07:51:55.264Z,37.97
2022-11-14T07:54:23.418Z,36.87
2022-11-14T07:56:51.289Z,38.63
2022-11-14T07:59:19.351Z,38.63
2022-11-14T08:01:47.292Z,39.27
2022-11-14T08:04:15.509Z,39.43
2022-11-14T08:06:43.636Z,38.73
2022-11-14T08:09:13.128Z,39.47
2022-11-14T08:11:50.151Z,37.87
2022-11-14T08:14:18.309Z,39.13
2022-11-14T08:16:46.362Z,38.27
2022-11-14T08:19:16.656Z,37.87
2022-11-14T08:21:45.117Z,38.10
2022-11-14T08:24:14.490Z,37.37
2022-11-14T08:26:42.399Z,38.07
2022-11-14T08:29:10.543Z,37.53
2022-11-14T08:31:38.551Z,36.07
2022-11-14T08:34:06.631Z,36.07
2022-11-14T08:36:34.654Z,36.90
2022-11-14T08:39:03.040Z,37.93
2022-11-14T08:41:32.307Z,37.10
2022-11-14T08:44:00.373Z,37.67
2022-11-14T08:46:28.388Z,37.50
2022-11-14T08:48:56.293Z,36.10
2022-11-14T08:51:24.344Z,35.07
2022-11-14T08:53:52.602Z,36.37
2022-11-14T08:56:20.600Z,36.60
2022-11-14T08:58:50.160Z,36.37
2022-11-14T09:01:18.133Z,37.63
2022-11-14T09:03:46.131Z,37.23
2022-11-14T09:06:14.144Z,37.30
2022-11-14T09:08:42.120Z,36.83
2022-11-14T09:11:10.410Z,38.03
2022-11-14T09:13:39.144Z,36.00
2022-11-14T09:16:09.463Z,36.33
2022-11-14T09:18:37.463Z,36.33
2022-11-14T09:21:07.594Z,37.17
2022-11-14T09:23:36.257Z,35.13
2022-11-14T09:26:06.032Z,36.97
2022-11-14T09:28:34.295Z,34.57
2022-11-14T09:31:03.479Z,35.80
2022-11-14T09:33:33.031Z,37.77
2022-11-14T09:36:01.898Z,33.90
2022-11-14T09:38:35.435Z,35.43
2022-11-14T09:41:21.083Z,36.07
2022-11-14T09:44:05.298Z,34.20
2022-11-14T09:46:39.574Z,32.33
2022-11-14T09:49:20.423Z,34.27
2022-11-14T09:51:55.625Z,33.37
2022-11-14T09:54:26.036Z,34.87
2022-11-14T09:56:55.716Z,34.23
2022-11-14T09:59:23.833Z,32.83
2022-11-14T10:02:03.083Z,32.97
2022-11-14T10:04:48.200Z,32.37
2022-11-14T10:07:27.801Z,32.50
2022-11-14T10:10:04.750Z,32.13
2022-11-14T10:12:42.755Z,32.53
2022-11-14T10:15:20.999Z,32.40
2022-11-14T10:18:12.926Z,33.03
2022-11-14T10:20:47.982Z,32.93
2022-11-14T10:23:39.456Z,33.47
2022-11-14T10:26:16.527Z,32.03
2022-11-14T10:28:55.806Z,33.67
2022-11-14T10:31:38.460Z,31.97
2022-11-14T10:34:12.668Z,33.47
2022-11-14T10:36:55.498Z,34.03
2022-11-14T10:39:30.317Z,31.93
2022-11-14T10:42:07.989Z,31.73
2022-11-14T10:44:39.677Z,31.53
2022-11-14T10:47:10.906Z,31.33
2022-11-14T10:49:39.655Z,31.15
2022-11-14T10:52:14.715Z,32.77
2022-11-14T10:54:47.295Z,32.33
2022-11-14T10:57:17.906Z,33.10
2022-11-14T10:59:46.026Z,31.45
2022-11-14T11:02:14.021Z,32.30
2022-11-14T11:04:43.226Z,32.13
2022-11-14T11:07:41.584Z,30.93
2022-11-14T11:10:40.538Z,31.07
2022-11-14T11:13:15.765Z,31.10
2022-11-14T11:15:44.413Z,30.23
2022-11-14T11:18:28.230Z,31.20
2022-11-14T11:21:06.497Z,33.58
2022-11-14T11:23:37.157Z,34.95
2022-11-14T11:26:09.111Z,35.22
2022-11-14T11:28:37.966Z,36.85
2022-11-14T11:31:08.238Z,36.80
2022-11-14T11:33:38.114Z,37.42
2022-11-14T11:36:13.267Z,36.50
2022-11-14T11:38:43.401Z,38.08
2022-11-14T11:42:02.276Z,38.17
2022-11-14T11:44:15.400Z,38.60
2022-11-14T11:46:49.293Z,37.85
2022-11-14T11:49:20.445Z,38.53
2022-11-14T11:51:54.166Z,37.80
2022-11-14T11:54:28.597Z,37.17
2022-11-14T11:57:02.128Z,37.58
2022-11-14T11:59:36.446Z,37.78
2022-11-14T12:02:18.197Z,36.42
2022-11-14T12:04:46.488Z,38.10
2022-11-14T12:07:19.355Z,34.33
2022-11-14T12:13:01.953Z,36.58
2022-11-14T12:15:40.285Z,37.00
2022-11-14T12:18:30.334Z,33.00
2022-11-14T12:21:13.466Z,34.20
2022-11-14T12:24:15.548Z,34.42
2022-11-14T12:27:19.011Z,34.50
2022-11-14T12:30:05.633Z,34.17
2022-11-14T12:32:36.261Z,33.65
2022-11-14T12:35:08.648Z,33.50
2022-11-14T12:37:43.910Z,31.85
2022-11-14T12:40:23.657Z,30.88
2022-11-14T12:42:57.461Z,30.42
2022-11-14T12:46:00.904Z,31.17
2022-11-14T12:48:37.341Z,30.98
2022-11-14T12:51:27.939Z,30.25
2022-11-14T12:53:56.895Z,32.22
2022-11-14T12:56:53.944Z,28.95
2022-11-14T12:59:30.395Z,32.10
2022-11-14T13:02:31.891Z,30.98
2022-11-14T13:05:17.958Z,29.13
2022-11-14T13:07:55.680Z,32.25
2022-11-14T13:10:30.979Z,31.63
2022-11-14T13:13:21.398Z,31.08
2022-11-14T13:16:10.228Z,31.10
2022-11-14T13:19:10.067Z,32.20
2022-11-14T13:21:47.524Z,30.83
2022-11-14T13:24:17.305Z,32.72
2022-11-14T13:26:50.868Z,31.52
2022-11-14T13:29:52.273Z,33.22
2022-11-14T13:33:06.366Z,31.15
2022-11-14T13:53:29.113Z,33.97
2022-11-14T13:56:06.283Z,35.00
2022-11-14T13:58:58.371Z,34.83
2022-11-14T14:01:39.809Z,34.45
2022-11-14T14:04:27.131Z,36.00
2022-11-14T14:07:06.641Z,35.90
2022-11-14T14:09:42.015Z,36.70
2022-11-14T14:12:27.875Z,35.13
2022-11-14T14:15:17.265Z,34.58
2022-11-14T14:17:56.437Z,35.25
2022-11-14T14:20:39.656Z,35.95
2022-11-14T14:23:21.625Z,35.85
2022-11-14T14:25:58.774Z,35.63
2022-11-14T14:28:40.511Z,33.75
2022-11-14T14:31:13.600Z,35.20
2022-11-14T14:33:43.653Z,35.75
2022-11-14T14:36:19.465Z,33.17
2022-11-14T14:38:48.271Z,34.83
2022-11-14T14:41:19.030Z,32.13
2022-11-14T14:43:55.824Z,31.55
2022-11-14T14:46:34.445Z,31.48
2022-11-14T14:49:06.699Z,35.55
2022-11-14T14:51:38.130Z,35.55
2022-11-14T14:54:07.869Z,36.15
2022-11-14T14:56:39.350Z,36.55
2022-11-14T14:59:23.119Z,34.47
2022-11-14T15:01:51.297Z,34.63
2022-11-14T15:04:20.946Z,35.78
2022-11-14T15:06:49.083Z,36.47
2022-11-14T15:09:20.205Z,35.50
2022-11-14T15:11:53.408Z,35.22
2022-11-14T15:14:26.246Z,37.33
2022-11-14T15:16:56.532Z,37.03
2022-11-14T15:19:29.859Z,35.13
2022-11-14T15:22:06.431Z,36.08
2022-11-14T15:24:34.725Z,38.13
2022-11-14T15:27:06.515Z,36.85
2022-11-14T15:29:36.011Z,38.58
2022-11-14T15:32:06.539Z,38.10
2022-11-14T15:34:36.012Z,40.75
2022-11-14T15:37:09.687Z,38.30
2022-11-14T15:39:38.581Z,37.90
2022-11-14T15:42:16.461Z,38.65
2022-11-14T15:44:47.705Z,38.03
2022-11-14T15:47:21.196Z,38.97
2022-11-14T15:50:03.692Z,38.97
2022-11-14T15:52:36.387Z,38.97
2022-11-14T15:55:05.659Z,39.22
2022-11-14T15:57:34.813Z,39.67
2022-11-14T16:00:07.601Z,38.67
2022-11-14T16:02:46.015Z,40.65
2022-11-14T16:05:25.411Z,41.35
2022-11-14T16:07:53.681Z,39.35
2022-11-14T16:10:23.574Z,40.80
2022-11-14T16:12:52.819Z,42.03
2022-11-14T16:15:22.860Z,42.30
2022-11-14T16:17:51.685Z,44.42
2022-11-14T16:20:22.021Z,43.70
2022-11-14T16:22:53.124Z,43.85
2022-11-14T16:25:24.437Z,44.78
2022-11-14T16:27:53.336Z,44.97
2022-11-14T16:30:25.017Z,46.13
2022-11-14T16:32:53.848Z,45.65
2022-11-14T16:35:23.644Z,46.70
2022-11-14T16:37:52.663Z,46.67
2022-11-14T16:40:23.172Z,46.90
2022-11-14T16:42:51.515Z,46.40
2022-11-14T16:45:21.090Z,50.33
2022-11-14T16:47:51.512Z,49.95
2022-11-14T16:50:20.760Z,47.92
2022-11-14T16:52:50.341Z,50.47
2022-11-14T16:55:18.475Z,50.10
2022-11-14T16:57:46.490Z,50.20
2022-11-14T17:00:15.226Z,49.17
2022-11-14T17:02:43.481Z,50.28
2022-11-14T17:05:12.960Z,50.38
2022-11-14T17:07:41.108Z,55.08
2022-11-14T17:10:09.781Z,55.92
2022-11-14T17:12:37.936Z,55.42
2022-11-14T17:15:06.780Z,56.05
2022-11-14T17:17:34.787Z,53.40
2022-11-14T17:20:02.814Z,54.03
2022-11-14T17:22:32.380Z,55.60
2022-11-14T17:25:00.305Z,54.67
2022-11-14T17:27:28.945Z,57.17
2022-11-14T17:29:57.078Z,55.90
2022-11-14T17:32:25.228Z,56.38
2022-11-14T17:34:53.456Z,57.07
2022-11-14T17:37:21.425Z,55.28
2022-11-14T17:39:50.899Z,55.83
2022-11-14T17:42:18.902Z,54.45
2022-11-14T17:44:46.864Z,54.03
2022-11-14T17:47:15.451Z,54.83
2022-11-14T17:49:43.594Z,55.13
2022-11-14T17:52:12.110Z,54.87
2022-11-14T17:54:40.084Z,54.80
2022-11-14T17:57:09.479Z,52.37
2022-11-14T17:59:38.801Z,53.10
2022-11-14T18:02:06.865Z,52.50
2022-11-14T18:04:34.922Z,53.03
2022-11-14T18:07:03.934Z,51.07
2022-11-14T18:09:32.257Z,50.03
2022-11-14T18:12:00.436Z,47.13
2022-11-14T18:14:29.857Z,47.27
2022-11-14T18:17:12.399Z,46.63
2022-11-14T18:19:41.523Z,46.67
2022-11-14T18:22:09.494Z,46.50
2022-11-14T18:24:37.598Z,46.30
2022-11-14T18:27:05.696Z,46.20
2022-11-14T18:29:37.873Z,46.40
2022-11-14T18:32:06.494Z,48.57
2022-11-14T18:34:36.967Z,48.27
2022-11-14T18:37:05.503Z,47.95
2022-11-14T18:39:33.572Z,48.70
2022-11-14T18:42:01.536Z,48.07
2022-11-14T18:44:30.094Z,49.27
2022-11-14T18:46:59.653Z,51.50
2022-11-14T18:49:30.483Z,53.10
2022-11-14T18:52:01.175Z,53.87
2022-11-14T18:54:33.474Z,52.87
2022-11-14T18:57:01.730Z,52.90
2022-11-14T18:59:29.771Z,51.13
2022-11-14T19:01:59.652Z,54.57
2022-11-14T19:04:27.838Z,52.23
2022-11-14T19:06:56.398Z,52.07
2022-11-14T19:09:24.596Z,52.67
2022-11-14T19:12:10.074Z,53.97
2022-11-14T19:14:38.351Z,52.40
2022-11-14T19:17:10.625Z,54.97
2022-11-14T19:19:38.947Z,54.97
2022-11-14T19:22:08.256Z,53.77
2022-11-14T19:24:36.437Z,54.87
2022-11-14T19:27:07.347Z,55.00
2022-11-14T19:29:36.082Z,55.77
2022-11-14T19:33:20.381Z,54.87
2022-11-14T19:36:57.754Z,54.40
2022-11-14T19:43:01.836Z,54.10
2022-11-14T19:45:29.862Z,58.97
2022-11-14T19:48:00.568Z,58.77
2022-11-14T19:50:28.606Z,59.03
2022-11-14T19:52:58.307Z,59.90
2022-11-14T19:55:26.332Z,60.60
2022-11-14T19:57:54.280Z,61.67
2022-11-14T20:00:24.889Z,62.23
2022-11-14T20:02:53.011Z,61.90
2022-11-14T20:05:20.924Z,62.60
2022-11-14T20:07:48.909Z,60.93
2022-11-14T20:10:18.433Z,59.50
2022-11-14T20:12:46.323Z,60.90
2022-11-14T20:15:14.693Z,59.20
2022-11-14T20:17:42.821Z,63.30
2022-11-14T20:20:11.546Z,64.27
2022-11-14T20:22:39.646Z,63.07
2022-11-14T20:25:08.944Z,62.60
2022-11-14T20:27:38.320Z,60.10
2022-11-14T20:30:07.398Z,62.03
2022-11-14T20:32:35.478Z,59.60
2022-11-14T20:35:06.694Z,60.30
2022-11-14T20:37:34.683Z,59.78
2022-11-14T20:40:02.714Z,57.40
2022-11-14T20:42:30.668Z,59.83
2022-11-14T20:45:00.299Z,59.50
2022-11-14T20:47:29.848Z,57.00
2022-11-14T20:49:57.797Z,58.53
2022-11-14T20:52:26.171Z,59.10
2022-11-14T20:54:57.289Z,56.92
2022-11-14T20:57:25.649Z,57.73
2022-11-14T20:59:55.891Z,56.87
2022-11-14T21:02:28.278Z,57.80
2022-11-14T21:04:57.251Z,58.15
2022-11-14T21:07:25.391Z,57.03
2022-11-14T21:10:14.077Z,55.67
2022-11-14T21:12:45.678Z,57.57
2022-11-14T21:15:19.793Z,57.47
2022-11-14T21:17:49.329Z,54.85
2022-11-14T21:20:17.911Z,56.97
2022-11-14T21:22:45.778Z,56.37
2022-11-14T21:25:16.343Z,56.40
2022-11-14T21:27:44.871Z,57.37
2022-11-14T21:30:13.380Z,55.90
2022-11-14T21:32:41.348Z,57.80
2022-11-14T21:35:10.699Z,56.90
2022-11-14T21:37:38.683Z,57.30
2022-11-14T21:40:07.632Z,56.60
2022-11-14T21:42:35.656Z,57.43
2022-11-14T21:45:08.669Z,58.10
2022-11-14T21:47:36.672Z,57.77
2022-11-14T21:50:04.969Z,56.25
2022-11-14T21:52:34.513Z,58.13
2022-11-14T21:55:03.392Z,58.00
2022-11-14T21:57:31.306Z,56.75
2022-11-14T22:00:00.448Z,56.80
2022-11-14T22:02:45.944Z,59.17
2022-11-14T22:05:13.853Z,57.33
2022-11-14T22:07:43.393Z,58.10
2022-11-14T22:10:11.463Z,58.63
2022-11-14T22:12:39.432Z,57.70
2022-11-14T22:15:08.439Z,56.50
2022-11-14T22:17:36.385Z,57.07
2022-11-14T22:20:05.185Z,57.43
2022-11-14T22:22:33.109Z,56.93
2022-11-14T22:25:02.738Z,56.70
2022-11-14T22:27:30.749Z,56.73
2022-11-14T22:29:59.172Z,56.53
2022-11-14T22:32:27.072Z,56.70
2022-11-14T22:34:54.955Z,57.78
2022-11-14T22:37:22.869Z,57.85
2022-11-14T22:39:50.782Z,55.83
2022-11-14T22:42:20.179Z,56.40
2022-11-14T22:44:48.152Z,57.05
2022-11-14T22:47:16.139Z,58.20
2022-11-14T22:49:43.992Z,58.10
2022-11-14T22:52:13.753Z,58.38
2022-11-14T22:54:42.248Z,58.47
2022-11-14T22:57:13.136Z,59.07
2022-11-14T22:59:42.521Z,58.33
2022-11-14T23:02:10.411Z,56.70
2022-11-14T23:04:38.338Z,58.40
2022-11-14T23:07:06.880Z,58.45
2022-11-14T23:09:35.071Z,59.05
2022-11-14T23:12:06.519Z,57.22
2022-11-14T23:14:34.617Z,56.53
2022-11-14T23:17:06.002Z,56.80
2022-11-14T23:19:34.147Z,56.47
2022-11-14T23:22:04.377Z,57.80
2022-11-14T23:24:32.358Z,59.13
2022-11-14T23:27:00.310Z,57.50
2022-11-14T23:29:28.512Z,60.20
2022-11-14T23:31:56.398Z,59.08
2022-11-14T23:34:27.252Z,56.95
2022-11-14T23:36:55.120Z,58.05
2022-11-14T23:39:23.069Z,60.13
2022-11-14T23:41:50.996Z,58.42
2022-11-14T23:44:19.100Z,59.83
2022-11-14T23:46:47.071Z,59.15
2022-11-14T23:49:15.012Z,62.60
2022-11-14T23:51:44.343Z,58.83
2022-11-14T23:54:12.245Z,58.75
2022-11-14T23:56:40.199Z,62.47
2022-11-14T23:59:08.193Z,59.55
